Nagaoka, Japan
Current Conditions -  °F | °C
As of 9:00 PM on Tuesday 21 Oct 2014 (Local Time) from RJSN Reporting Station
Rain Showers Rain Showers  
Wind Chill: 63°   Ceiling: 1200
Heat Index: 63°   Visibility: 4mi
Dew Point: 61°   Wind: 22mph
Humidity: 94%   Direction: 360°N
Pressure: 29.94"   Gusts: NA
Location:  37.46°N, 138.85°E
Report Text: RJSN 211200Z 36019KT 7000 -SHRA SCT009 BKN012 BKN018 17/16 Q1014
Loading
Personal Weather Stations






























Interactive Weather Map
Tropical Storm Tracking
New forecast layout! Learn more

10-Day Weather Forecast

Advertisements
Track Severe Weather on mobile